Impacts METAR Board INFO
IDs:

KDCA - Washington/National, VA, US

Updated at: 0229 UTC 17 Dec 2017
Potential Impact None Slight Moderate High
Time16/14Z 16/15Z 16/16Z 16/17Z 16/18Z 16/19Z 16/20Z 16/21Z 16/22Z 16/23Z 17/00Z 17/01Z 17/02Z
VIS10 10 10 10 10 10 10 10 10 10 10 10 10
CIG-- -- -- -- -- -- -- -- -- -- -- -- --
CoverSCTSCTSCTSCTFEWFEWSCTFEWFEWFEWCLRCLRCLR
FltCatVFRVFRVFRVFRVFRVFRVFRVFRVFRVFRVFRVFRVFR
WX--------------------------
WDir210220200220210200200200200210180200200
WSpd7 11 12 14 12 13 11 14 10 6 6 5 3
WGst-- -- -- 21 19 20 -- 18 -- -- -- -- --
Raw hourly METARs
KDCA 161352Z 21007KT 10SM FEW140 SCT250 01/M05 A3017 RMK AO2 SLP216 T00061050
KDCA 161452Z 22011KT 10SM FEW150 SCT250 03/M06 A3018 RMK AO2 SLP218 T00281056 51010
KDCA 161552Z 20012KT 10SM FEW150 SCT250 05/M05 A3016 RMK AO2 SLP214 T00501050
KDCA 161652Z 22014G21KT 10SM SCT150 07/M06 A3013 RMK AO2 SLP202 T00671056
KDCA 161752Z 21012G19KT 10SM FEW060 FEW250 08/M05 A3011 RMK AO2 SLP194 T00781050 10078 21022 58023
KDCA 161852Z 20013G20KT 10SM FEW080 FEW150 08/M05 A3009 RMK AO2 SLP187 T00831050
KDCA 161952Z 20011KT 10SM SCT100 SCT150 08/M04 A3009 RMK AO2 SLP188 T00831044
KDCA 162052Z 20014G18KT 10SM FEW100 08/M05 A3009 RMK AO2 SLP188 T00831050 56006
KDCA 162152Z 20010KT 10SM FEW100 FEW250 07/M05 A3010 RMK AO2 SLP194 T00721050
KDCA 162252Z 21006KT 10SM FEW250 06/M04 A3013 RMK AO2 SLP203 T00611044
KDCA 162352Z 18006KT 10SM CLR 04/M02 A3015 RMK AO2 SLP209 T00441022 10089 20044 53022
KDCA 170052Z 20005KT 10SM CLR 04/M04 A3016 RMK AO2 SLP213 T00441039
KDCA 170152Z 20003KT 10SM CLR 05/M04 A3018 RMK AO2 SLP220 T00501044